createdAt,value
2023-05-19T00:01:49.182Z,54.06
2023-05-19T00:04:15.940Z,54.39
2023-05-19T00:06:42.605Z,54.73
2023-05-19T00:09:10.371Z,53.97
2023-05-19T00:11:38.976Z,55.20
2023-05-19T00:14:07.657Z,54.29
2023-05-19T00:16:34.448Z,53.56
2023-05-19T00:19:03.461Z,54.27
2023-05-19T00:21:30.290Z,53.04
2023-05-19T00:23:56.698Z,53.39
2023-05-19T00:26:27.973Z,53.68
2023-05-19T00:28:54.804Z,53.18
2023-05-19T00:31:21.512Z,54.09
2023-05-19T00:33:47.885Z,53.51
2023-05-19T00:36:14.289Z,54.36
2023-05-19T00:38:40.785Z,53.52
2023-05-19T00:41:07.358Z,54.14
2023-05-19T00:46:12.283Z,54.16
2023-05-19T00:48:38.821Z,53.75
2023-05-19T00:51:05.460Z,53.31
2023-05-19T00:53:35.297Z,54.35
2023-05-19T00:56:02.685Z,54.61
2023-05-19T00:58:30.319Z,54.40
2023-05-19T01:01:00.398Z,53.43
2023-05-19T01:03:27.056Z,53.96
2023-05-19T01:05:53.443Z,54.41
2023-05-19T01:08:19.871Z,54.40
2023-05-19T01:10:46.249Z,54.08
2023-05-19T01:13:12.698Z,55.39
2023-05-19T01:16:11.352Z,55.97
2023-05-19T01:18:50.459Z,56.36
2023-05-19T01:21:43.434Z,54.62
2023-05-19T01:24:28.544Z,56.24
2023-05-19T01:27:24.283Z,54.46
2023-05-19T01:30:11.577Z,54.85
2023-05-19T01:32:41.999Z,54.33
2023-05-19T01:35:10.141Z,55.21
2023-05-19T01:37:38.831Z,55.93
2023-05-19T01:40:09.317Z,56.29
2023-05-19T01:42:38.016Z,55.22
2023-05-19T01:45:05.072Z,55.47
2023-05-19T01:47:35.639Z,55.34
2023-05-19T01:50:02.948Z,55.85
2023-05-19T01:55:10.889Z,54.45
2023-05-19T01:57:43.310Z,54.80
2023-05-19T02:00:27.055Z,55.29
2023-05-19T02:03:27.155Z,55.03
2023-05-19T02:06:18.349Z,55.05
2023-05-19T02:08:57.121Z,55.50
2023-05-19T02:11:47.303Z,55.02
2023-05-19T02:14:24.884Z,56.18
2023-05-19T02:16:52.400Z,55.79
2023-05-19T02:19:26.328Z,56.14
2023-05-19T02:21:53.141Z,55.67
2023-05-19T02:24:19.908Z,57.17
2023-05-19T02:26:46.491Z,56.58
2023-05-19T02:29:12.822Z,56.14
2023-05-19T02:31:39.335Z,56.43
2023-05-19T02:37:28.146Z,56.37
2023-05-19T02:39:54.824Z,56.92
2023-05-19T02:45:02.809Z,56.98
2023-05-19T02:47:29.156Z,56.19
2023-05-19T02:49:55.519Z,56.15
2023-05-19T02:52:21.927Z,55.72
2023-05-19T02:54:48.252Z,56.77
2023-05-19T02:57:14.608Z,55.62
2023-05-19T02:59:40.964Z,56.42
2023-05-19T03:02:07.491Z,55.88
2023-05-19T03:04:33.974Z,56.60
2023-05-19T03:07:00.330Z,56.33
2023-05-19T03:09:26.770Z,56.37
2023-05-19T03:11:53.122Z,55.22
2023-05-19T03:14:19.459Z,56.39
2023-05-19T03:16:45.987Z,56.61
2023-05-19T03:19:12.630Z,56.50
2023-05-19T03:21:39.227Z,55.60
2023-05-19T03:24:05.789Z,56.33
2023-05-19T03:26:32.128Z,55.95
2023-05-19T03:28:58.463Z,56.11
2023-05-19T03:31:24.829Z,56.36
2023-05-19T03:33:51.171Z,55.86
2023-05-19T03:36:17.479Z,55.82
2023-05-19T03:38:43.888Z,55.29
2023-05-19T03:41:10.310Z,55.77
2023-05-19T03:43:36.616Z,55.62
2023-05-19T03:46:03.189Z,55.77
2023-05-19T03:48:29.614Z,55.72
2023-05-19T03:50:55.980Z,56.12
2023-05-19T03:53:22.287Z,55.71
2023-05-19T03:55:48.788Z,55.85
2023-05-19T03:58:15.467Z,56.51
2023-05-19T04:00:42.524Z,55.63
2023-05-19T04:03:08.951Z,55.37
2023-05-19T04:05:35.458Z,55.71
2023-05-19T04:08:01.837Z,55.86
2023-05-19T04:10:28.409Z,57.87
2023-05-19T04:12:54.743Z,56.56
2023-05-19T04:15:21.079Z,56.54
2023-05-19T04:17:47.546Z,56.34
2023-05-19T04:20:14.056Z,56.78
2023-05-19T04:22:40.475Z,56.44
2023-05-19T04:25:07.165Z,56.37
2023-05-19T04:27:33.590Z,56.26
2023-05-19T04:30:09.869Z,56.54
2023-05-19T04:32:41.255Z,56.27
2023-05-19T04:35:12.993Z,56.80
2023-05-19T04:37:39.329Z,56.42
2023-05-19T04:40:06.418Z,56.90
2023-05-19T04:42:37.816Z,56.29
2023-05-19T04:45:04.524Z,57.55
2023-05-19T04:47:31.047Z,56.64
2023-05-19T04:49:57.499Z,56.32
2023-05-19T04:52:23.879Z,56.61
2023-05-19T04:54:50.334Z,56.66
2023-05-19T04:57:16.638Z,56.15
2023-05-19T04:59:42.977Z,56.63
2023-05-19T05:02:09.437Z,56.02
2023-05-19T05:04:35.826Z,55.11
2023-05-19T05:07:02.167Z,55.08
2023-05-19T05:09:28.621Z,54.44
2023-05-19T05:11:55.192Z,54.19
2023-05-19T05:14:21.836Z,53.46
2023-05-19T05:16:48.584Z,53.79
2023-05-19T05:19:15.356Z,53.20
2023-05-19T05:21:42.143Z,53.24
2023-05-19T05:24:09.494Z,53.44
2023-05-19T05:26:35.954Z,53.66
2023-05-19T05:29:03.571Z,53.18
2023-05-19T05:31:29.945Z,52.85
2023-05-19T05:33:56.425Z,53.37
2023-05-19T05:36:22.781Z,53.55
2023-05-19T05:38:49.189Z,53.76
2023-05-19T05:41:15.818Z,53.39
2023-05-19T05:43:42.120Z,53.00
2023-05-19T05:46:08.589Z,52.69
2023-05-19T05:48:35.467Z,52.75
2023-05-19T05:51:02.078Z,52.95
2023-05-19T05:53:30.705Z,51.82
2023-05-19T05:55:57.420Z,51.47
2023-05-19T05:58:23.749Z,51.33
2023-05-19T06:00:50.183Z,50.91
2023-05-19T06:03:16.543Z,50.85
2023-05-19T06:05:42.952Z,50.99
2023-05-19T06:08:09.320Z,51.51
2023-05-19T06:10:35.917Z,51.34
2023-05-19T06:13:02.479Z,51.90
2023-05-19T06:15:28.844Z,51.15
2023-05-19T06:17:55.203Z,50.46
2023-05-19T06:20:21.573Z,50.36
2023-05-19T06:22:47.929Z,51.07
2023-05-19T06:25:14.385Z,50.86
2023-05-19T06:27:40.796Z,50.80
2023-05-19T06:30:07.876Z,50.49
2023-05-19T06:32:34.264Z,50.44
2023-05-19T06:35:00.832Z,50.35
2023-05-19T06:37:27.165Z,50.07
2023-05-19T06:39:53.775Z,50.11
2023-05-19T06:42:21.187Z,50.38
2023-05-19T06:44:51.297Z,49.75
2023-05-19T06:47:18.334Z,49.76
2023-05-19T06:49:45.481Z,49.61
2023-05-19T06:52:12.201Z,49.24
2023-05-19T06:54:38.566Z,48.96
2023-05-19T06:57:05.329Z,49.35
2023-05-19T06:59:31.691Z,48.68
2023-05-19T07:01:58.099Z,49.34
2023-05-19T07:04:24.504Z,49.03
2023-05-19T07:06:50.912Z,48.59
2023-05-19T07:09:17.269Z,48.36
2023-05-19T07:11:44.150Z,48.11
2023-05-19T07:14:10.509Z,47.43
2023-05-19T07:16:36.850Z,47.65
2023-05-19T07:19:03.314Z,48.73
2023-05-19T07:21:29.686Z,47.55
2023-05-19T07:23:56.000Z,47.45
2023-05-19T07:26:22.334Z,46.25
2023-05-19T07:28:48.718Z,45.47
2023-05-19T07:31:15.068Z,46.75
2023-05-19T07:33:41.527Z,46.44
2023-05-19T07:36:07.947Z,46.21
2023-05-19T07:38:34.324Z,45.80
2023-05-19T07:41:01.557Z,45.55
2023-05-19T07:43:27.844Z,46.59
2023-05-19T07:45:54.822Z,46.64
2023-05-19T07:48:21.206Z,46.87
2023-05-19T07:50:48.132Z,47.22
2023-05-19T08:01:13.707Z,46.84
2023-05-19T08:14:20.733Z,46.46
2023-05-19T08:16:47.231Z,46.01
2023-05-19T08:21:48.793Z,46.43
2023-05-19T08:24:15.222Z,45.60
2023-05-19T08:26:41.759Z,45.52
2023-05-19T08:29:08.216Z,45.75
2023-05-19T08:31:34.626Z,45.56
2023-05-19T08:34:01.020Z,44.31
2023-05-19T08:36:27.434Z,44.88
2023-05-19T08:38:53.762Z,44.71
2023-05-19T08:41:20.274Z,44.98
2023-05-19T08:43:46.611Z,44.39
2023-05-19T08:46:14.072Z,44.14
2023-05-19T08:48:42.832Z,42.82
2023-05-19T08:51:23.174Z,43.82
2023-05-19T08:53:51.636Z,44.08
2023-05-19T08:56:22.357Z,42.54
2023-05-19T08:58:52.171Z,42.53
2023-05-19T09:01:19.561Z,42.57
2023-05-19T09:03:47.128Z,43.19
2023-05-19T09:06:13.662Z,41.68
2023-05-19T09:08:44.046Z,42.44
2023-05-19T09:11:10.889Z,41.48
2023-05-19T09:13:37.556Z,41.33
2023-05-19T09:16:04.724Z,41.71
2023-05-19T09:18:31.398Z,41.92
2023-05-19T09:20:59.812Z,41.25
2023-05-19T09:23:31.332Z,41.08
2023-05-19T09:26:01.097Z,41.42
2023-05-19T09:28:32.451Z,41.67
2023-05-19T09:31:06.971Z,41.57
2023-05-19T09:33:35.522Z,42.39
2023-05-19T09:36:02.817Z,41.85
2023-05-19T09:38:29.294Z,42.14
2023-05-19T09:40:57.125Z,42.43
2023-05-19T09:43:23.636Z,41.99
2023-05-19T09:46:24.416Z,42.89
2023-05-19T09:48:50.781Z,42.48
2023-05-19T09:51:17.303Z,42.46
2023-05-19T09:53:47.939Z,42.93
2023-05-19T09:56:14.548Z,43.31
2023-05-19T09:58:42.194Z,43.34
2023-05-19T10:01:08.859Z,43.19
2023-05-19T10:03:35.960Z,42.51
2023-05-19T10:06:03.848Z,42.66
2023-05-19T10:08:31.068Z,42.63
2023-05-19T10:10:58.253Z,41.91
2023-05-19T10:13:25.578Z,41.65
2023-05-19T10:15:58.765Z,41.31
2023-05-19T10:18:26.907Z,40.31
2023-05-19T10:20:54.287Z,40.46
2023-05-19T10:23:20.629Z,40.90
2023-05-19T10:25:47.899Z,40.41
2023-05-19T10:28:17.678Z,39.65
2023-05-19T10:30:50.565Z,40.37
2023-05-19T10:33:19.301Z,39.44
2023-05-19T10:36:23.330Z,39.61
2023-05-19T10:39:07.436Z,39.25
2023-05-19T10:41:51.026Z,40.57
2023-05-19T10:44:23.490Z,40.16
2023-05-19T10:46:50.394Z,40.00
2023-05-19T10:49:23.142Z,39.13
2023-05-19T10:51:51.982Z,39.61
2023-05-19T10:54:41.950Z,39.44
2023-05-19T10:57:08.639Z,38.85
2023-05-19T10:59:36.350Z,39.14
2023-05-19T11:02:09.207Z,39.03
2023-05-19T11:04:51.346Z,39.46
2023-05-19T11:07:19.204Z,38.97
2023-05-19T11:09:50.400Z,38.63
2023-05-19T11:12:20.828Z,37.93
2023-05-19T11:14:47.296Z,38.35
2023-05-19T11:17:14.991Z,38.59
2023-05-19T11:19:52.867Z,37.26
2023-05-19T11:22:23.727Z,37.13
2023-05-19T11:24:50.322Z,38.54
2023-05-19T11:27:32.846Z,38.80
2023-05-19T11:30:09.857Z,38.23
2023-05-19T11:32:36.381Z,37.75
2023-05-19T11:35:02.819Z,38.64
2023-05-19T11:37:32.161Z,37.37
2023-05-19T11:40:02.079Z,36.25
2023-05-19T11:42:28.446Z,36.39
2023-05-19T11:44:55.808Z,36.31
2023-05-19T11:47:22.287Z,36.64
2023-05-19T11:49:51.312Z,37.68
2023-05-19T11:52:22.158Z,36.70
2023-05-19T11:54:49.166Z,37.29
2023-05-19T11:57:15.432Z,36.27
2023-05-19T11:59:41.840Z,36.97
2023-05-19T12:02:21.189Z,35.80
2023-05-19T12:04:51.512Z,36.46
2023-05-19T12:07:20.159Z,36.46
2023-05-19T12:09:47.219Z,36.75
2023-05-19T12:12:18.469Z,35.83
2023-05-19T12:14:46.961Z,36.16
2023-05-19T12:17:15.610Z,35.38
2023-05-19T12:19:46.635Z,35.61
2023-05-19T12:22:14.552Z,35.86
2023-05-19T12:24:42.434Z,36.16
2023-05-19T12:32:28.000Z,34.87
2023-05-19T12:34:57.505Z,34.51
2023-05-19T12:37:27.115Z,35.55
2023-05-19T12:42:34.768Z,35.38
2023-05-19T12:45:04.156Z,34.25
2023-05-19T12:50:09.968Z,34.27
2023-05-19T12:55:17.919Z,34.44
2023-05-19T12:57:49.937Z,34.16
2023-05-19T13:00:19.198Z,33.03
2023-05-19T13:03:08.491Z,33.80
2023-05-19T13:05:39.370Z,34.37
2023-05-19T13:08:20.412Z,34.33
2023-05-19T13:10:47.752Z,34.53
2023-05-19T13:13:14.145Z,34.93
2023-05-19T13:15:42.247Z,34.08
2023-05-19T13:18:10.631Z,33.15
2023-05-19T13:20:38.207Z,34.42
2023-05-19T13:25:37.289Z,33.28
2023-05-19T13:28:04.407Z,32.98
2023-05-19T13:30:35.020Z,32.54
2023-05-19T13:33:02.247Z,32.70
2023-05-19T13:35:28.669Z,32.70
2023-05-19T13:37:55.068Z,33.04
2023-05-19T13:40:21.580Z,33.30
2023-05-19T13:42:47.962Z,33.47
2023-05-19T13:45:14.264Z,32.89
2023-05-19T13:47:40.784Z,33.43
2023-05-19T13:50:07.593Z,34.15
2023-05-19T13:57:57.761Z,34.38
2023-05-19T14:00:24.258Z,34.80
2023-05-19T14:02:50.719Z,34.66
2023-05-19T14:05:17.204Z,35.14
2023-05-19T14:07:43.678Z,35.00
2023-05-19T14:10:10.234Z,35.15
2023-05-19T14:12:45.052Z,35.09
2023-05-19T14:17:59.847Z,34.59
2023-05-19T14:20:27.934Z,34.18
2023-05-19T14:22:55.710Z,34.76
2023-05-19T14:25:22.040Z,34.35
2023-05-19T14:27:48.363Z,34.37
2023-05-19T14:30:14.775Z,34.12
2023-05-19T14:32:41.200Z,34.04
2023-05-19T14:35:07.827Z,33.66
2023-05-19T14:37:34.196Z,33.83
2023-05-19T14:40:00.563Z,33.91
2023-05-19T14:42:26.888Z,33.87
2023-05-19T14:44:53.325Z,34.06
2023-05-19T14:47:19.671Z,33.09
2023-05-19T14:49:46.158Z,32.88
2023-05-19T14:52:12.714Z,33.80
2023-05-19T14:54:39.044Z,34.17
2023-05-19T14:57:05.633Z,33.67
2023-05-19T14:59:35.671Z,33.21
2023-05-19T15:02:02.012Z,34.07
2023-05-19T15:04:28.408Z,34.27
2023-05-19T15:07:05.806Z,34.04
2023-05-19T15:09:35.495Z,33.79
2023-05-19T15:12:01.884Z,34.07
2023-05-19T15:17:03.494Z,33.76
2023-05-19T15:19:29.957Z,34.04
2023-05-19T15:21:56.409Z,34.48
2023-05-19T15:24:22.955Z,34.54
2023-05-19T15:26:49.374Z,34.39
2023-05-19T15:29:15.687Z,35.17
2023-05-19T15:31:42.082Z,35.07
2023-05-19T15:34:08.789Z,35.85
2023-05-19T15:36:35.164Z,36.10
2023-05-19T15:39:01.629Z,35.99
2023-05-19T15:41:28.026Z,36.60
2023-05-19T15:43:54.490Z,36.56
2023-05-19T15:46:20.901Z,36.92
2023-05-19T15:48:47.255Z,37.41
2023-05-19T15:53:53.753Z,37.80
2023-05-19T15:56:20.162Z,37.86
2023-05-19T15:58:46.528Z,37.79
2023-05-19T16:01:13.391Z,38.10
2023-05-19T16:03:39.863Z,38.20
2023-05-19T16:06:06.422Z,38.43
2023-05-19T16:08:32.834Z,38.47
2023-05-19T16:10:59.167Z,38.25
2023-05-19T16:13:25.728Z,39.03
2023-05-19T16:18:27.493Z,39.41
2023-05-19T16:20:53.828Z,39.72
2023-05-19T16:23:20.161Z,39.79
2023-05-19T16:25:47.683Z,39.93
2023-05-19T16:28:14.071Z,39.63
2023-05-19T16:33:15.742Z,39.69
2023-05-19T16:35:42.215Z,40.17
2023-05-19T16:38:08.668Z,40.59
2023-05-19T16:40:35.575Z,40.09
2023-05-19T18:27:42.988Z,47.71
2023-05-19T18:30:09.720Z,48.20
2023-05-19T18:32:36.792Z,48.82
2023-05-19T18:35:03.487Z,49.30
2023-05-19T18:37:29.897Z,49.11
2023-05-19T18:39:56.218Z,49.61
2023-05-19T18:42:22.660Z,48.79
2023-05-19T18:44:48.992Z,50.32
2023-05-19T18:47:15.329Z,50.90
2023-05-19T18:49:41.915Z,50.23
2023-05-19T18:52:08.320Z,50.76
2023-05-19T18:54:34.677Z,51.59
2023-05-19T18:57:00.998Z,51.38
2023-05-19T18:59:27.435Z,51.63
2023-05-19T19:01:54.202Z,52.51
2023-05-19T19:04:21.045Z,52.13
2023-05-19T19:06:48.593Z,52.52
2023-05-19T19:09:15.410Z,52.93
2023-05-19T19:11:41.829Z,51.94
2023-05-19T19:14:08.195Z,51.96
2023-05-19T19:16:34.587Z,52.91
2023-05-19T19:19:01.167Z,52.52
2023-05-19T19:21:27.722Z,52.89
2023-05-19T19:23:54.062Z,53.54
2023-05-19T19:26:20.989Z,54.17
2023-05-19T19:28:47.450Z,53.84
2023-05-19T19:31:13.902Z,55.28
2023-05-19T19:33:40.262Z,55.40
2023-05-19T19:36:06.650Z,55.28
2023-05-19T19:38:33.098Z,54.78
2023-05-19T19:40:59.505Z,55.70
2023-05-19T19:43:26.006Z,54.99
2023-05-19T19:46:02.694Z,55.84
2023-05-19T19:48:29.187Z,56.19
2023-05-19T19:50:56.459Z,55.74
2023-05-19T19:53:23.042Z,57.01
2023-05-19T19:55:57.026Z,57.24
2023-05-19T19:58:23.802Z,57.01
2023-05-19T20:00:50.457Z,57.41
2023-05-19T20:03:16.926Z,56.52
2023-05-19T20:05:43.655Z,56.95
2023-05-19T20:08:10.007Z,57.17
2023-05-19T20:10:36.582Z,56.89
2023-05-19T20:13:03.038Z,57.82
2023-05-19T20:18:04.734Z,57.59
2023-05-19T20:20:31.575Z,57.53
2023-05-19T20:22:58.090Z,57.62
2023-05-19T20:25:24.542Z,57.56
2023-05-19T20:30:24.841Z,58.66
2023-05-19T20:32:51.198Z,58.85
2023-05-19T20:35:17.771Z,59.00
2023-05-19T20:37:44.125Z,58.44
2023-05-19T20:40:10.695Z,57.81
2023-05-19T20:42:39.256Z,59.15
2023-05-19T20:47:42.332Z,58.47
2023-05-19T20:52:43.455Z,61.14
2023-05-19T20:55:09.900Z,60.95
2023-05-19T20:57:36.272Z,61.14
2023-05-19T21:00:03.220Z,59.61
2023-05-19T21:02:29.602Z,61.49
2023-05-19T21:04:56.029Z,59.78
2023-05-19T21:07:22.464Z,59.65
2023-05-19T21:09:48.848Z,60.09
2023-05-19T21:12:15.263Z,61.48
2023-05-19T21:14:41.761Z,60.61
2023-05-19T21:17:08.358Z,61.62
2023-05-19T21:19:37.066Z,60.66
2023-05-19T21:22:03.721Z,60.14
2023-05-19T21:24:30.211Z,59.93
2023-05-19T21:26:56.582Z,60.26
2023-05-19T21:29:22.904Z,60.95
2023-05-19T21:31:49.418Z,60.12
2023-05-19T21:34:15.744Z,61.79
2023-05-19T21:39:17.294Z,63.06
2023-05-19T21:41:43.607Z,61.76
2023-05-19T21:44:09.925Z,62.30
2023-05-19T21:46:36.486Z,63.39
2023-05-19T21:51:38.085Z,61.76
2023-05-19T21:54:04.432Z,62.45
2023-05-19T21:56:30.762Z,62.13
2023-05-19T21:58:57.228Z,64.06
2023-05-19T22:01:23.591Z,65.65
2023-05-19T22:03:50.084Z,63.72
2023-05-19T22:06:16.551Z,65.54
2023-05-19T22:08:42.989Z,64.55
2023-05-19T22:11:09.375Z,63.29
2023-05-19T22:13:35.712Z,63.11
2023-05-19T22:16:02.130Z,63.30
2023-05-19T22:18:28.471Z,63.54
2023-05-19T22:20:54.897Z,64.34
2023-05-19T22:23:21.231Z,63.44
2023-05-19T22:25:47.564Z,62.71
2023-05-19T22:28:13.972Z,62.51
2023-05-19T22:30:41.173Z,63.69
2023-05-19T22:33:08.692Z,62.49
2023-05-19T22:35:35.081Z,64.61
2023-05-19T22:38:01.420Z,64.27
2023-05-19T22:40:27.809Z,64.24
2023-05-19T22:42:54.264Z,64.36
2023-05-19T22:45:20.671Z,63.30
2023-05-19T22:47:47.064Z,64.87
2023-05-19T22:50:13.561Z,65.11
2023-05-19T22:52:40.009Z,63.59
2023-05-19T22:55:06.986Z,62.93
2023-05-19T22:57:33.297Z,63.47
2023-05-19T22:59:59.660Z,62.98
2023-05-19T23:02:26.732Z,63.05
2023-05-19T23:04:53.140Z,64.01
2023-05-19T23:07:19.480Z,64.53
2023-05-19T23:09:45.986Z,63.59
2023-05-19T23:12:12.339Z,63.74
2023-05-19T23:14:38.672Z,64.15
2023-05-19T23:17:05.505Z,63.68
2023-05-19T23:19:32.018Z,64.39
2023-05-19T23:21:58.444Z,63.48
2023-05-19T23:24:24.867Z,64.09
2023-05-19T23:26:51.226Z,64.03
2023-05-19T23:29:17.556Z,63.67
2023-05-19T23:31:44.460Z,63.10
2023-05-19T23:34:11.112Z,63.37
2023-05-19T23:36:37.517Z,63.39
2023-05-19T23:39:03.877Z,63.14
2023-05-19T23:41:30.218Z,63.68
2023-05-19T23:43:56.668Z,64.14
2023-05-19T23:46:23.282Z,64.05
2023-05-19T23:48:49.675Z,63.92
2023-05-19T23:51:16.056Z,65.02
2023-05-19T23:53:42.389Z,64.16
2023-05-19T23:56:08.747Z,64.23
2023-05-19T23:58:35.194Z,64.17
